EW0006 Weather Reports


time (UTC)temp
C
wind
direction
speed
KPH
gust
KPH
rain 1hr
cm
rain 24hr
cm
rain mn
cm
humidity
%
barometer
mb
20190420230127 8 9 3.2 8.0 0.00 2.87 0.00 90 942.6
20190420224634 8 9 3.2 8.0 0.00 2.87 0.00 90 942.7
20190420223103 8 9 1.6 9.7 0.00 2.87 0.00 90 942.9
20190420221600 8 9 6.4 11.3 0.00 2.87 0.00 90 942.9
20190420220139 8 9 1.6 8.0 0.00 2.87 0.00 90 943.0
20190420214549 8 5 1.6 6.4 0.00 2.87 2.87 90 943.1
20190420213049 8 5 0.0 0.0 0.00 2.87 2.87 90 943.2
20190420211551 8 5 4.8 12.9 0.00 2.87 2.87 90 943.2
20190420210106 8 5 6.4 17.7 0.00 2.87 2.87 90 943.4
20190420204539 8 5 4.8 14.5 0.00 2.87 2.87 90 943.4
20190420203121 8 5 6.4 11.3 0.00 2.87 2.87 90 943.3
20190420201652 8 5 6.4 17.7 0.00 2.87 2.87 90 943.3
20190420200053 8 5 14.5 20.9 0.05 2.87 2.87 90 943.2
20190420194601 8 5 9.7 17.7 0.08 2.87 2.87 90 943.0
20190420193050 8 5 8.0 20.9 0.10 2.87 2.87 90 942.9
20190420191615 8 5 11.3 19.3 0.13 2.87 2.87 90 942.8
20190420190118 8 5 8.0 19.3 0.08 2.84 2.84 90 942.8
20190420184540 9 5 9.7 16.1 0.05 2.82 2.82 90 942.6
20190420183043 9 5 6.4 20.9 0.03 2.79 2.79 90 942.5
20190420181534 10 5 12.9 22.5 0.05 2.77 2.77 90 942.3
20190420180036 10 5 6.4 20.9 0.23 2.77 2.77 90 942.4
20190420174551 10 5 11.3 19.3 0.38 2.77 2.77 90 942.2
20190420173048 10 5 11.3 19.3 0.48 2.77 2.77 90 942.3
20190420171551 10 5 8.0 20.9 0.46 2.72 2.72 90 942.2
20190420170047 10 5 14.5 20.9 0.25 2.51 2.51 90 942.0
20190420164540 10 5 12.9 17.7 0.13 2.39 2.39 90 941.9
20190420163024 11 5 11.3 19.3 0.03 2.29 2.29 90 941.8
20190420161529 11 5 11.3 24.1 0.00 2.26 2.26 90 941.6
20190420160104 11 5 11.3 25.7 0.00 2.26 2.26 90 941.5
20190420154530 11 5 8.0 17.7 0.00 2.26 2.26 90 941.2
20190420153039 11 5 12.9 20.9 0.00 2.26 2.26 90 941.1
20190420151527 11 5 1.6 6.4 0.00 2.26 2.26 90 941.1
20190420150030 10 5 8.0 11.3 0.00 2.26 2.26 90 941.1
20190420144542 10 5 11.3 20.9 0.00 2.26 2.26 90 941.3
20190420143022 10 5 11.3 14.5 0.00 2.26 2.26 90 941.1
20190420141519 10 5 0.0 0.0 0.23 2.26 2.26 90 941.2
20190420140022 10 5 0.0 6.4 0.25 2.26 2.26 90 941.3
20190420134527 10 5 3.2 8.0 0.25 2.26 2.26 90 941.4
20190420133029 10 5 0.0 9.7 0.25 2.26 2.26 90 941.5
20190420131527 10 5 4.8 14.5 0.05 2.03 2.03 90 941.3
20190420130026 10 5 6.4 9.7 0.03 2.01 2.01 90 941.1
20190420124528 10 5 4.8 8.0 0.03 2.01 2.01 90 941.1
20190420123059 10 5 3.2 11.3 0.03 2.01 2.01 90 941.2
20190420121509 10 5 0.0 9.7 0.00 1.98 1.98 90 941.2
20190420120010 10 5 3.2 12.9 0.00 1.98 1.98 90 941.2
20190420114506 10 5 6.4 16.1 0.03 1.98 1.98 90 941.4
20190420113013 9 5 6.4 16.1 0.05 1.98 1.98 90 941.2
20190420111512 9 5 4.8 12.9 0.05 1.98 1.98 90 941.3
20190420110010 9 5 0.0 4.8 0.05 1.98 1.98 90 941.5
20190420104519 9 5 1.6 9.7 0.08 1.96 1.96 90 941.7
20190420103007 9 9 1.6 11.3 0.15 1.93 1.93 90 941.6
20190420101503 9 5 0.0 0.0 0.20 1.93 1.93 90 941.6
20190420100002 8 5 0.0 0.0 0.25 1.93 1.93 90 941.6
20190420094506 8 5 0.0 8.0 0.20 1.88 1.88 90 941.5
20190420090144 8 5 0.0 4.8 0.10 1.68 1.68 90 940.9
20190420084653 8 5 0.0 9.7 0.10 1.68 1.68 90 940.8
20190420083128 8 5 9.7 16.1 0.10 1.65 1.65 90 940.8
20190420081636 7 5 0.0 6.4 0.08 1.63 1.63 90 941.0
20190420080120 7 5 11.3 19.3 0.05 1.57 1.57 90 940.8
20190420074627 7 5 14.5 24.1 0.08 1.57 1.57 90 940.8
20190420073228 7 5 9.7 20.9 0.05 1.55 1.55 90 940.9
20190420071723 7 5 11.3 22.5 0.08 1.55 1.55 90 940.7
20190420070137 7 5 9.7 17.7 0.08 1.52 1.52 90 940.7
20190420064636 7 5 4.8 12.9 0.18 1.50 1.50 90 940.6
20190420063142 7 5 3.2 12.9 0.33 1.50 1.50 90 940.5
20190420061636 7 5 6.4 14.5 0.41 1.45 1.45 90 940.7
20190420060106 7 5 11.3 14.5 0.46 1.42 1.42 90 940.8
20190420054631 7 5 9.7 16.1 0.38 1.30 1.30 90 941.1
20190420053107 7 5 8.0 19.3 0.33 1.17 1.17 90 941.1
20190420051623 7 5 12.9 19.3 0.33 1.07 1.07 90 941.2
20190420050114 7 5 3.2 8.0 0.33 0.97 0.97 89 941.1
20190420044620 7 5 3.2 14.5 0.43 0.91 0.91 89 940.9
20190420043200 7 5 8.0 12.9 0.51 0.84 0.84 89 940.9
20190420041622 8 5 6.4 12.9 0.46 0.71 0.71 89 941.2
20190420040054 8 5 4.8 14.5 0.36 0.61 0.61 89 941.3
20190420034618 8 5 8.0 16.1 0.25 0.46 0.46 89 941.5
20190420033105 8 5 0.0 6.4 0.15 0.33 0.33 89 941.7
20190420031557 8 5 0.0 0.0 0.15 0.28 0.28 89 941.8
20190420030039 8 5 0.0 0.0 0.13 0.23 0.23 88 941.9
20190420024559 8 5 0.0 0.0 0.13 0.20 0.20 88 942.0
20190420023036 8 5 0.0 0.0 0.10 0.18 0.18 88 942.4
20190420021531 8 5 0.0 0.0 0.05 0.13 0.13 87 942.6
20190420020026 8 5 0.0 0.0 0.05 0.10 0.10 87 942.7
20190420014537 8 5 0.0 4.8 0.08 0.08 0.08 86 943.1
20190420013018 8 5 0.0 0.0 0.08 0.08 0.08 86 943.2
20190420011520 8 5 0.0 6.4 0.08 0.08 0.08 86 943.3
20190420010021 8 5 0.0 0.0 0.05 0.05 0.05 86 943.8
20190420004508 8 5 0.0 0.0 0.00 0.00 0.00 86 944.1
20190420003010 8 5 0.0 9.7 0.00 0.00 0.00 86 944.3
20190420001522 8 5 0.0 6.4 0.00 0.00 0.00 85 944.4
20190420000006 8 5 0.0 8.0 0.00 0.00 0.00 85 944.3
20190419234509 8 5 0.0 6.4 0.00 0.00 0.00 85 944.4
20190419233238 8 5 3.2 9.7 0.00 0.00 0.00 85 944.6
20190419231654 8 5 6.4 12.9 0.00 0.00 0.00 85 944.6